Time;durP1;ratioP1;P1;durP2;ratioP2;P2;SDS_P1;SDS_P2;PMS_P1;PMS_P2;Temp;Humidity;BMP_temperature;BMP_pressure;BME280_temperature;BME280_humidity;BME280_pressure;Samples;Min_cycle;Max_cycle;Signal;HPM_P1;HPM_P2
2022/02/19 00:01:48;;;;;;;6.82;1.08;;;9.50;86.60;;;;;;4977222;28;20058;-74
2022/02/19 00:04:14;;;;;;;6.68;1.02;;;9.50;85.20;;;;;;4976362;28;20029;-74
2022/02/19 00:06:40;;;;;;;6.18;0.80;;;9.50;86.90;;;;;;4976504;28;20025;-74
2022/02/19 00:09:06;;;;;;;8.90;1.42;;;9.40;86.40;;;;;;4993401;28;20026;-74
2022/02/19 00:11:32;;;;;;;6.75;1.30;;;9.40;87.40;;;;;;4976551;28;20053;-74
2022/02/19 00:13:58;;;;;;;4.47;1.15;;;9.40;86.30;;;;;;4975317;28;20034;-74
2022/02/19 00:16:24;;;;;;;6.43;1.15;;;9.40;86.20;;;;;;4993358;28;20045;-75
2022/02/19 00:18:49;;;;;;;6.28;1.20;;;9.40;86.40;;;;;;4990854;28;20027;-77
2022/02/19 00:21:16;;;;;;;5.70;0.90;;;9.40;87.40;;;;;;4976242;28;20046;-77
2022/02/19 00:23:42;;;;;;;9.77;1.13;;;9.40;87.00;;;;;;4994394;28;20029;-77
2022/02/19 00:26:07;;;;;;;9.32;1.00;;;9.30;88.80;;;;;;4975330;28;20026;-77
2022/02/19 00:28:34;;;;;;;6.05;0.95;;;9.40;89.20;;;;;;4994105;28;20034;-77
2022/02/19 00:30:59;;;;;;;4.70;0.90;;;9.30;90.00;;;;;;4976155;28;20023;-76
2022/02/19 00:33:26;;;;;;;8.43;1.38;;;9.30;89.20;;;;;;4993738;28;20029;-77
2022/02/19 00:35:52;;;;;;;9.23;0.98;;;9.30;89.10;;;;;;4975335;28;20049;-78
2022/02/19 00:38:17;;;;;;;9.60;1.10;;;9.20;89.70;;;;;;4976385;28;20088;-77
2022/02/19 00:40:47;;;;;;;9.27;1.20;;;9.20;90.10;;;;;;4976544;28;20026;-77
2022/02/19 00:43:13;;;;;;;10.02;1.10;;;9.20;90.20;;;;;;4976199;28;20022;-77
2022/02/19 00:45:39;;;;;;;7.30;1.00;;;9.20;90.20;;;;;;4976145;28;20026;-77
2022/02/19 00:48:06;;;;;;;9.88;1.15;;;9.20;89.30;;;;;;4976164;28;20483;-76
2022/02/19 00:50:32;;;;;;;6.88;1.23;;;9.20;89.00;;;;;;4976092;28;20117;-77
2022/02/19 00:52:58;;;;;;;9.65;1.83;;;9.10;89.00;;;;;;4975635;28;20089;-76
2022/02/19 00:55:24;;;;;;;13.02;1.75;;;9.10;88.70;;;;;;4976395;28;20022;-76
2022/02/19 00:57:50;;;;;;;9.38;1.30;;;9.10;89.40;;;;;;4975780;28;20023;-76
2022/02/19 01:00:16;;;;;;;7.00;0.90;;;9.10;88.40;;;;;;4976691;28;20145;-76
2022/02/19 01:02:42;;;;;;;5.15;1.15;;;9.00;87.50;;;;;;4976673;28;20026;-77
2022/02/19 01:05:09;;;;;;;8.90;1.10;;;9.00;86.80;;;;;;4976228;28;20033;-76
2022/02/19 01:07:35;;;;;;;5.18;0.88;;;9.00;85.90;;;;;;4976853;28;20022;-76
2022/02/19 01:10:02;;;;;;;3.88;1.15;;;9.00;86.10;;;;;;4976145;28;20118;-76
2022/02/19 01:12:28;;;;;;;6.47;1.00;;;8.90;84.60;;;;;;4976512;28;20034;-76
2022/02/19 01:14:54;;;;;;;6.05;1.10;;;8.90;83.00;;;;;;4976183;28;20018;-77
2022/02/19 01:17:20;;;;;;;9.55;1.25;;;8.90;84.90;;;;;;4976703;28;20502;-76
2022/02/19 01:19:46;;;;;;;11.30;1.33;;;8.90;84.40;;;;;;4993888;28;20063;-76
2022/02/19 01:22:12;;;;;;;6.47;1.15;;;8.80;85.00;;;;;;4976022;28;20464;-76
2022/02/19 01:24:37;;;;;;;6.68;1.10;;;8.80;81.30;;;;;;4993149;28;20026;-76
2022/02/19 01:27:03;;;;;;;12.18;1.75;;;8.80;83.10;;;;;;4975923;28;20460;-76
2022/02/19 01:29:29;;;;;;;8.52;1.40;;;8.70;80.70;;;;;;4976334;28;20348;-76
2022/02/19 01:31:55;;;;;;;9.95;1.15;;;8.60;81.60;;;;;;4975754;28;20034;-76
2022/02/19 01:34:24;;;;;;;5.22;0.85;;;8.60;81.20;;;;;;4993470;28;20030;-76
2022/02/19 01:36:50;;;;;;;6.78;1.17;;;8.60;81.00;;;;;;4976315;28;20026;-77
2022/02/19 01:39:16;;;;;;;9.18;0.85;;;8.60;78.30;;;;;;4997844;28;20049;-76
2022/02/19 01:41:42;;;;;;;6.38;0.80;;;8.60;79.40;;;;;;4980000;28;20024;-76
2022/02/19 01:44:11;;;;;;;8.35;1.08;;;8.60;79.90;;;;;;4997164;28;20303;-76
2022/02/19 01:46:37;;;;;;;7.05;0.98;;;8.50;79.40;;;;;;4997572;28;20448;-76
2022/02/19 01:49:04;;;;;;;5.93;0.82;;;8.50;79.10;;;;;;4979431;28;20026;-76
2022/02/19 01:51:32;;;;;;;10.00;1.35;;;8.50;78.60;;;;;;4997666;28;20018;-77
2022/02/19 01:54:03;;;;;;;10.10;1.75;;;8.50;79.10;;;;;;4979188;28;20030;-76
2022/02/19 01:56:29;;;;;;;6.57;1.30;;;8.50;79.20;;;;;;4980045;28;20375;-76
2022/02/19 01:58:55;;;;;;;10.73;1.55;;;8.50;77.90;;;;;;4996721;28;20514;-76
2022/02/19 02:01:21;;;;;;;4.30;0.93;;;8.50;78.70;;;;;;4979709;28;20026;-76
2022/02/19 02:03:47;;;;;;;8.45;0.93;;;8.50;79.20;;;;;;4980099;28;20031;-76
2022/02/19 02:06:13;;;;;;;12.48;1.30;;;8.50;80.10;;;;;;4979542;28;20037;-76
2022/02/19 02:08:39;;;;;;;9.10;1.17;;;8.50;80.20;;;;;;4979883;28;20026;-76
2022/02/19 02:11:06;;;;;;;9.63;1.30;;;8.40;80.30;;;;;;4979329;28;20029;-76
2022/02/19 02:13:31;;;;;;;7.57;1.00;;;8.40;82.20;;;;;;4979757;28;20027;-76
2022/02/19 02:15:57;;;;;;;9.20;1.40;;;8.40;82.10;;;;;;4979118;28;20444;-76
2022/02/19 02:18:23;;;;;;;7.13;1.23;;;8.40;82.00;;;;;;4979782;28;20034;-76
2022/02/19 02:20:49;;;;;;;8.60;1.02;;;8.40;82.40;;;;;;4979242;28;20514;-77
2022/02/19 02:23:16;;;;;;;7.85;1.52;;;8.40;83.10;;;;;;4996788;28;20036;-76
2022/02/19 02:25:43;;;;;;;8.68;1.42;;;8.30;83.00;;;;;;4979522;28;20117;-76
2022/02/19 02:28:10;;;;;;;9.20;1.20;;;8.30;83.60;;;;;;4979056;28;20022;-76
2022/02/19 02:30:37;;;;;;;8.55;1.30;;;8.30;84.20;;;;;;4979302;28;20027;-76
2022/02/19 02:33:11;;;;;;;6.57;1.35;;;8.20;84.40;;;;;;4979318;28;20026;-77
2022/02/19 02:35:37;;;;;;;7.35;1.08;;;8.20;84.30;;;;;;4979663;28;20026;-76
2022/02/19 02:38:04;;;;;;;9.98;1.25;;;8.20;85.10;;;;;;4996366;28;20045;-76
2022/02/19 02:40:31;;;;;;;5.57;1.20;;;8.20;84.80;;;;;;4979021;28;20018;-76
2022/02/19 02:42:56;;;;;;;9.93;1.23;;;8.20;85.80;;;;;;4978659;28;20034;-76
2022/02/19 02:45:22;;;;;;;8.38;1.17;;;8.20;86.30;;;;;;4979014;28;20092;-76
2022/02/19 02:47:48;;;;;;;10.18;1.25;;;8.10;86.50;;;;;;4996204;28;20041;-76
2022/02/19 02:50:14;;;;;;;8.07;1.30;;;8.10;86.70;;;;;;4977527;28;20030;-76
2022/02/19 02:52:40;;;;;;;9.52;1.90;;;8.10;87.10;;;;;;4979333;28;20026;-76
2022/02/19 02:55:07;;;;;;;13.93;1.50;;;8.00;87.20;;;;;;4978420;28;20034;-76
2022/02/19 02:57:34;;;;;;;9.45;1.30;;;8.00;87.80;;;;;;4979264;28;20022;-76
2022/02/19 03:00:01;;;;;;;7.07;1.00;;;7.90;87.80;;;;;;4978643;28;20368;-76
2022/02/19 03:02:29;;;;;;;5.75;1.17;;;7.90;88.30;;;;;;4996197;28;20035;-77
2022/02/19 03:04:56;;;;;;;9.10;1.00;;;7.90;87.40;;;;;;4978350;28;20030;-76
2022/02/19 03:07:21;;;;;;;12.90;1.38;;;7.80;88.40;;;;;;4978537;28;20101;-76
2022/02/19 03:09:47;;;;;;;6.65;0.75;;;7.80;88.30;;;;;;4975582;28;20110;-76
2022/02/19 03:12:12;;;;;;;9.13;1.40;;;7.80;88.30;;;;;;4978303;28;20267;-76
2022/02/19 03:14:38;;;;;;;8.30;1.10;;;7.80;88.70;;;;;;4996112;28;20022;-76
2022/02/19 03:17:04;;;;;;;10.18;1.17;;;7.70;89.50;;;;;;4975274;28;20515;-77
2022/02/19 03:19:30;;;;;;;9.00;1.17;;;7.70;88.90;;;;;;4976713;28;20054;-76
2022/02/19 03:21:55;;;;;;;4.63;0.98;;;7.70;89.60;;;;;;4958838;28;20027;-77
2022/02/19 03:24:22;;;;;;;5.27;1.20;;;7.60;89.90;;;;;;4959354;28;20125;-76
2022/02/19 03:26:48;;;;;;;8.23;1.07;;;7.60;90.10;;;;;;4964286;28;20026;-77
2022/02/19 03:29:13;;;;;;;5.25;1.02;;;7.60;90.30;;;;;;4978165;28;20208;-76
2022/02/19 03:31:39;;;;;;;7.80;1.03;;;7.60;90.30;;;;;;4978456;28;20045;-76
2022/02/19 03:34:05;;;;;;;8.97;1.10;;;7.60;90.20;;;;;;4995695;28;20030;-76
2022/02/19 03:36:30;;;;;;;8.40;1.03;;;7.60;90.30;;;;;;4978787;28;20019;-76
2022/02/19 03:38:56;;;;;;;4.37;1.00;;;7.50;90.10;;;;;;4995261;28;20053;-76
2022/02/19 03:41:22;;;;;;;11.03;1.13;;;7.60;90.40;;;;;;4995837;28;20046;-76
2022/02/19 03:43:47;;;;;;;7.13;1.43;;;7.50;89.90;;;;;;4978314;28;20034;-76
2022/02/19 03:46:13;;;;;;;9.53;1.13;;;7.50;90.10;;;;;;4995129;28;20371;-77
2022/02/19 03:48:39;;;;;;;6.10;1.07;;;7.50;90.10;;;;;;4978420;28;20034;-76
2022/02/19 03:51:05;;;;;;;8.63;0.97;;;7.50;89.30;;;;;;4977896;28;20085;-77
2022/02/19 03:53:31;;;;;;;6.67;1.27;;;7.50;90.00;;;;;;4978436;28;20022;-77
2022/02/19 03:55:57;;;;;;;13.47;1.30;;;7.50;90.00;;;;;;4995095;28;20027;-78
2022/02/19 03:58:22;;;;;;;10.23;1.13;;;7.50;89.50;;;;;;4978151;28;20037;-77
2022/02/19 04:00:48;;;;;;;10.23;0.90;;;7.50;90.10;;;;;;4978288;28;20018;-77
2022/02/19 04:03:14;;;;;;;10.30;1.10;;;7.40;90.30;;;;;;4977578;28;20030;-76
2022/02/19 04:05:40;;;;;;;9.50;1.65;;;7.40;90.40;;;;;;4978200;28;20455;-77
2022/02/19 04:08:06;;;;;;;8.93;1.40;;;7.40;90.60;;;;;;4977441;28;20029;-77
2022/02/19 04:10:32;;;;;;;9.43;1.10;;;7.40;90.10;;;;;;4994987;28;20014;-77
2022/02/19 04:12:58;;;;;;;7.83;1.47;;;7.40;90.60;;;;;;4977521;28;20022;-76
2022/02/19 04:15:24;;;;;;;7.50;0.87;;;7.40;90.80;;;;;;4977856;28;20022;-76
2022/02/19 04:17:49;;;;;;;10.70;1.07;;;7.30;91.10;;;;;;4977398;28;20026;-77
2022/02/19 04:20:15;;;;;;;8.23;1.23;;;7.30;91.20;;;;;;4976508;28;20046;-76
2022/02/19 04:22:41;;;;;;;8.10;1.30;;;7.30;91.40;;;;;;4977341;28;20030;-76
2022/02/19 04:25:10;;;;;;;8.47;1.37;;;7.30;91.20;;;;;;4994494;28;20339;-76
2022/02/19 04:27:37;;;;;;;7.15;1.00;;;7.30;91.20;;;;;;4961764;28;20074;-76
2022/02/19 04:30:04;;;;;;;7.13;0.90;;;7.20;90.90;;;;;;4977132;28;20026;-77
2022/02/19 04:32:30;;;;;;;4.57;1.07;;;7.20;91.20;;;;;;4994760;28;20030;-76
2022/02/19 04:34:55;;;;;;;8.03;1.10;;;7.20;91.40;;;;;;4977128;28;20118;-76
2022/02/19 04:37:21;;;;;;;5.97;0.90;;;7.20;91.40;;;;;;4977006;28;20018;-76
2022/02/19 04:39:47;;;;;;;4.87;0.87;;;7.10;91.60;;;;;;4977303;28;20026;-76
2022/02/19 04:42:12;;;;;;;5.13;0.77;;;7.10;91.50;;;;;;4976607;28;20523;-76
2022/02/19 04:44:38;;;;;;;5.70;1.03;;;7.10;91.60;;;;;;4977190;28;20077;-76
2022/02/19 04:47:05;;;;;;;11.30;1.50;;;7.10;91.80;;;;;;4976508;28;20068;-76
2022/02/19 04:49:30;;;;;;;7.10;1.17;;;7.10;91.90;;;;;;4976832;28;20117;-76
2022/02/19 04:51:56;;;;;;;9.50;1.40;;;7.10;92.00;;;;;;4994322;28;20155;-76
2022/02/19 04:54:22;;;;;;;8.97;1.20;;;7.00;92.00;;;;;;4993707;28;20073;-76
2022/02/19 04:56:48;;;;;;;12.77;1.37;;;7.00;92.30;;;;;;4976951;28;20018;-76
2022/02/19 04:59:13;;;;;;;7.77;1.10;;;7.00;92.20;;;;;;4976317;28;20027;-76
2022/02/19 05:01:40;;;;;;;7.50;1.43;;;7.00;92.30;;;;;;4976786;28;20077;-76
2022/02/19 05:04:07;;;;;;;6.03;0.87;;;7.00;92.40;;;;;;4976003;28;20031;-76
2022/02/19 05:06:32;;;;;;;10.70;1.90;;;7.00;92.50;;;;;;4976943;28;20022;-77
2022/02/19 05:08:58;;;;;;;5.57;1.10;;;7.00;92.50;;;;;;4994125;28;20057;-77
2022/02/19 05:11:24;;;;;;;8.37;1.23;;;7.00;92.60;;;;;;4975834;28;20027;-77
2022/02/19 05:13:50;;;;;;;5.60;0.90;;;7.00;92.70;;;;;;4976794;28;20026;-76
2022/02/19 05:16:16;;;;;;;9.07;1.03;;;6.90;92.90;;;;;;4976050;28;20058;-76
2022/02/19 05:18:41;;;;;;;5.70;1.00;;;6.90;92.90;;;;;;4993943;28;20054;-76
2022/02/19 05:21:07;;;;;;;9.77;0.93;;;6.90;92.70;;;;;;4975446;28;20050;-77
2022/02/19 05:23:33;;;;;;;10.63;1.60;;;6.90;92.90;;;;;;4976720;28;20042;-76
2022/02/19 05:25:59;;;;;;;5.10;1.27;;;6.90;92.90;;;;;;4976693;28;20374;-77
2022/02/19 05:28:25;;;;;;;5.20;1.03;;;6.90;92.90;;;;;;4976322;28;20026;-76
2022/02/19 05:30:51;;;;;;;7.33;1.50;;;6.90;93.00;;;;;;4976534;28;20404;-76
2022/02/19 05:33:16;;;;;;;9.70;1.00;;;6.90;93.00;;;;;;4975809;28;20033;-76
2022/02/19 05:35:42;;;;;;;7.67;1.43;;;6.80;93.20;;;;;;4993838;28;20101;-77
2022/02/19 05:38:08;;;;;;;6.20;1.20;;;6.80;93.20;;;;;;4976099;28;20502;-76
2022/02/19 05:40:33;;;;;;;11.70;1.57;;;6.80;93.30;;;;;;4976457;28;20023;-76
2022/02/19 05:42:59;;;;;;;6.03;1.03;;;6.80;93.00;;;;;;4976096;28;20442;-77
2022/02/19 05:45:25;;;;;;;8.50;1.20;;;6.80;93.20;;;;;;4993400;28;20541;-76
2022/02/19 05:47:50;;;;;;;5.33;1.03;;;6.80;93.30;;;;;;4976214;28;20057;-77
2022/02/19 05:50:16;;;;;;;9.17;1.00;;;6.80;93.20;;;;;;4975934;28;20121;-76
2022/02/19 05:52:41;;;;;;;5.27;0.90;;;6.70;93.20;;;;;;4976341;28;20034;-76
2022/02/19 05:55:08;;;;;;;8.17;1.60;;;6.70;93.30;;;;;;4993150;28;20072;-76
2022/02/19 05:57:40;;;;;;;8.63;1.30;;;6.70;93.20;;;;;;4975877;28;20029;-76
2022/02/19 06:00:06;;;;;;;5.55;1.02;;;6.70;93.30;;;;;;4975695;28;20046;-77
2022/02/19 06:02:32;;;;;;;7.43;0.90;;;6.60;93.40;;;;;;4992981;28;20463;-76
2022/02/19 06:04:57;;;;;;;10.37;1.33;;;6.60;93.30;;;;;;4976119;28;20121;-76
2022/02/19 06:07:23;;;;;;;7.00;1.07;;;6.50;93.60;;;;;;4975505;28;20407;-76
2022/02/19 06:09:48;;;;;;;6.57;1.20;;;6.50;93.40;;;;;;4976273;28;20026;-77
2022/02/19 06:12:14;;;;;;;12.77;1.50;;;6.50;93.70;;;;;;4975680;28;20054;-77
2022/02/19 06:14:40;;;;;;;4.77;0.70;;;6.40;93.70;;;;;;4976182;28;20400;-77
2022/02/19 06:17:05;;;;;;;6.90;1.13;;;6.40;93.90;;;;;;4975504;28;20026;-77
2022/02/19 06:19:31;;;;;;;6.53;1.03;;;6.40;94.00;;;;;;4975218;28;20069;-76
2022/02/19 06:21:56;;;;;;;7.20;1.03;;;6.30;94.00;;;;;;4975746;28;20057;-76
2022/02/19 06:24:22;;;;;;;7.73;1.20;;;6.30;94.20;;;;;;4976905;28;20117;-76
2022/02/19 06:26:47;;;;;;;8.33;0.80;;;6.30;94.30;;;;;;4979947;28;20023;-77
2022/02/19 06:29:13;;;;;;;10.00;0.67;;;6.30;94.60;;;;;;4979398;28;20030;-77
2022/02/19 06:31:39;;;;;;;5.20;1.50;;;6.20;94.60;;;;;;4979785;28;20023;-77
2022/02/19 06:34:04;;;;;;;6.30;0.80;;;6.20;94.70;;;;;;4979494;28;20022;-76
2022/02/19 06:36:30;;;;;;;10.13;1.00;;;6.20;94.80;;;;;;4979053;28;20033;-76
2022/02/19 06:38:56;;;;;;;3.97;0.80;;;6.10;94.80;;;;;;4979368;28;20030;-77
2022/02/19 06:41:21;;;;;;;7.50;0.97;;;6.10;95.10;;;;;;4978744;28;20026;-76
2022/02/19 06:43:47;;;;;;;5.47;0.90;;;6.10;95.00;;;;;;4996476;28;20030;-76
2022/02/19 06:46:12;;;;;;;4.97;1.00;;;6.10;95.00;;;;;;4978705;28;20117;-77
2022/02/19 06:48:38;;;;;;;10.70;1.03;;;6.10;95.20;;;;;;4996155;28;20031;-78
2022/02/19 06:51:04;;;;;;;12.70;1.20;;;6.10;95.20;;;;;;4978746;28;20033;-77
2022/02/19 06:53:29;;;;;;;8.23;1.20;;;6.10;95.30;;;;;;4995809;28;20049;-77
2022/02/19 06:55:55;;;;;;;6.37;0.90;;;6.10;95.30;;;;;;4978866;28;20026;-76
2022/02/19 06:58:21;;;;;;;7.37;0.83;;;6.10;95.40;;;;;;4978144;28;20443;-76
2022/02/19 07:00:51;;;;;;;5.10;1.27;;;6.10;95.40;;;;;;4978668;28;20030;-76
2022/02/19 07:03:17;;;;;;;7.80;1.30;;;6.10;95.30;;;;;;4995759;28;20038;-76
2022/02/19 07:05:43;;;;;;;8.83;1.10;;;6.10;95.50;;;;;;4996112;28;20019;-76
2022/02/19 07:08:09;;;;;;;9.50;1.47;;;6.10;95.50;;;;;;4978602;28;20033;-78
2022/02/19 07:10:34;;;;;;;7.07;0.70;;;6.00;95.60;;;;;;4978933;28;20521;-77
2022/02/19 07:13:00;;;;;;;8.93;1.10;;;6.00;95.80;;;;;;4978304;28;20053;-77
2022/02/19 07:15:26;;;;;;;7.33;1.17;;;6.00;95.90;;;;;;4978056;28;20029;-77
2022/02/19 07:17:53;;;;;;;6.83;0.80;;;6.00;96.10;;;;;;4978547;28;20027;-77
2022/02/19 07:20:21;;;;;;;8.03;1.10;;;5.90;96.20;;;;;;4977171;28;20534;-77
2022/02/19 07:22:50;;;;;;;13.40;1.37;;;6.00;96.30;;;;;;4995268;28;20125;-76
2022/02/19 07:25:17;;;;;;;6.50;1.07;;;6.00;96.20;;;;;;4977942;28;20026;-76
2022/02/19 07:27:46;;;;;;;4.57;0.90;;;6.00;96.30;;;;;;4978805;28;20030;-76
2022/02/19 07:30:17;;;;;;;10.57;1.47;;;6.00;96.30;;;;;;4977996;28;20037;-77
2022/02/19 07:32:44;;;;;;;10.17;1.00;;;6.10;96.30;;;;;;4979045;28;20026;-78
2022/02/19 07:35:10;;;;;;;11.30;1.10;;;6.10;96.30;;;;;;4977055;28;20296;-78
2022/02/19 07:37:37;;;;;;;6.73;0.80;;;6.00;96.40;;;;;;4977721;28;20025;-77
2022/02/19 07:40:05;;;;;;;14.97;1.57;;;6.10;96.30;;;;;;4977857;28;20018;-77
2022/02/19 07:42:31;;;;;;;9.70;1.43;;;6.10;96.30;;;;;;4994717;28;20121;-77
2022/02/19 07:44:57;;;;;;;5.67;1.00;;;6.10;96.40;;;;;;4994817;28;20026;-78
2022/02/19 07:47:28;;;;;;;3.63;0.90;;;6.10;96.40;;;;;;4977307;28;20025;-77
2022/02/19 07:58:22;;;;;;;4.63;0.90;;;6.20;96.40;;;;;;4993476;28;20054;-77
2022/02/19 08:00:57;;;;;;;7.43;1.50;;;6.20;96.80;;;;;;4994114;28;20037;-78
2022/02/19 08:03:27;;;;;;;8.23;1.03;;;6.20;96.60;;;;;;4977040;28;20061;-78
2022/02/19 08:05:53;;;;;;;11.37;1.50;;;6.30;96.60;;;;;;4976710;28;20510;-77
2022/02/19 08:08:19;;;;;;;7.07;1.60;;;6.30;96.50;;;;;;4976930;28;20117;-77
2022/02/19 08:10:48;;;;;;;6.67;1.30;;;6.30;96.40;;;;;;4976978;28;20053;-77
2022/02/19 08:13:16;;;;;;;7.47;0.87;;;6.30;96.60;;;;;;4972954;28;20475;-78
2022/02/19 08:15:42;;;;;;;7.77;1.10;;;6.30;96.50;;;;;;4975219;28;20061;-79
2022/02/19 08:18:09;;;;;;;6.53;1.07;;;6.30;96.40;;;;;;4992655;28;20030;-76
2022/02/19 08:20:37;;;;;;;9.00;1.00;;;6.40;96.40;;;;;;4972333;28;20055;-75
2022/02/19 08:23:03;;;;;;;9.50;1.47;;;6.40;96.60;;;;;;4972980;28;20039;-75
2022/02/19 08:25:29;;;;;;;8.73;1.30;;;6.40;96.20;;;;;;4971806;28;20177;-75
2022/02/19 08:27:55;;;;;;;3.37;0.77;;;6.40;96.20;;;;;;4972421;28;20121;-75
2022/02/19 08:30:21;;;;;;;6.47;1.00;;;6.40;96.30;;;;;;4972321;28;20026;-75
2022/02/19 08:32:48;;;;;;;8.80;1.30;;;6.50;96.20;;;;;;4972234;28;20039;-75
2022/02/19 08:35:14;;;;;;;7.83;1.23;;;6.50;95.90;;;;;;4972079;28;20042;-74
2022/02/19 08:37:40;;;;;;;5.33;1.07;;;6.40;96.10;;;;;;4971981;28;20035;-73
2022/02/19 08:40:09;;;;;;;7.73;1.40;;;6.40;96.30;;;;;;4972025;28;20388;-76
2022/02/19 08:42:35;;;;;;;11.23;1.43;;;6.40;96.40;;;;;;4971262;28;20038;-74
2022/02/19 08:45:01;;;;;;;12.23;1.70;;;6.40;96.40;;;;;;4969506;28;20031;-75
2022/02/19 08:47:27;;;;;;;6.30;1.20;;;6.50;96.00;;;;;;4970414;28;20122;-75
2022/02/19 08:49:52;;;;;;;11.13;1.53;;;6.50;96.00;;;;;;4972269;28;20062;-75
2022/02/19 08:52:18;;;;;;;9.37;0.97;;;6.50;95.80;;;;;;4972860;28;20022;-75
2022/02/19 08:54:44;;;;;;;6.03;0.90;;;6.50;95.50;;;;;;4972219;28;20428;-76
2022/02/19 08:57:09;;;;;;;7.37;1.33;;;6.50;95.90;;;;;;4972438;28;20031;-77
2022/02/19 08:59:35;;;;;;;7.77;1.10;;;6.50;95.40;;;;;;4973461;28;20380;-77
2022/02/19 09:02:01;;;;;;;6.73;1.27;;;6.50;95.80;;;;;;4973683;28;20038;-76
2022/02/19 09:04:26;;;;;;;7.50;1.13;;;6.50;95.90;;;;;;4973160;28;20047;-76
2022/02/19 09:06:52;;;;;;;6.97;0.87;;;6.60;95.80;;;;;;4971968;28;20037;-76
2022/02/19 09:09:17;;;;;;;8.00;1.00;;;6.60;95.60;;;;;;4971333;28;20030;-76
2022/02/19 09:11:43;;;;;;;4.23;0.80;;;6.60;95.00;;;;;;4972587;28;20126;-77
2022/02/19 09:14:09;;;;;;;6.47;1.40;;;6.60;95.30;;;;;;4971934;28;20495;-76
2022/02/19 09:16:37;;;;;;;9.53;1.00;;;6.70;95.40;;;;;;4971899;28;20033;-76
2022/02/19 09:19:04;;;;;;;10.30;1.10;;;6.70;95.40;;;;;;4973112;28;20027;-76
2022/02/19 09:21:30;;;;;;;5.60;1.20;;;6.70;95.30;;;;;;4975336;28;20410;-76
2022/02/19 09:23:57;;;;;;;8.13;1.13;;;6.80;95.60;;;;;;4975035;28;20042;-76
2022/02/19 09:26:24;;;;;;;10.53;1.40;;;6.80;95.70;;;;;;4975062;28;20030;-75
2022/02/19 09:28:50;;;;;;;9.30;1.23;;;6.80;95.20;;;;;;4974936;28;20058;-76
2022/02/19 09:31:16;;;;;;;11.73;1.40;;;6.90;95.30;;;;;;4974807;28;20069;-76
2022/02/19 09:33:42;;;;;;;9.40;1.73;;;7.00;94.80;;;;;;4975083;28;20619;-75
2022/02/19 09:36:09;;;;;;;10.03;1.90;;;7.00;95.00;;;;;;4975033;28;20038;-76
2022/02/19 09:38:35;;;;;;;7.53;1.30;;;7.00;95.00;;;;;;4974643;28;20091;-75
2022/02/19 09:41:02;;;;;;;5.43;1.23;;;7.10;94.90;;;;;;4975440;28;20038;-75
2022/02/19 09:43:28;;;;;;;8.10;1.57;;;7.10;94.10;;;;;;4970700;28;20042;-76
2022/02/19 09:45:54;;;;;;;11.20;1.50;;;7.10;94.30;;;;;;4975873;28;20117;-75
2022/02/19 09:48:20;;;;;;;6.80;1.27;;;7.10;94.30;;;;;;4990889;28;20034;-74
2022/02/19 09:50:48;;;;;;;5.33;0.80;;;7.10;94.50;;;;;;4974496;28;20548;-74
2022/02/19 09:53:14;;;;;;;5.17;1.20;;;7.20;94.10;;;;;;4992095;28;20080;-75
2022/02/19 09:55:40;;;;;;;11.17;2.33;;;7.20;94.00;;;;;;4974984;28;20065;-74
2022/02/19 09:58:09;;;;;;;5.63;1.10;;;7.20;94.20;;;;;;4976495;28;20031;-76
2022/02/19 10:00:35;;;;;;;5.23;1.10;;;7.30;94.40;;;;;;4978057;28;20089;-75
2022/02/19 10:03:00;;;;;;;5.70;1.27;;;7.30;94.00;;;;;;4978944;28;20034;-76
2022/02/19 10:05:30;;;;;;;4.77;0.80;;;7.40;92.80;;;;;;4978290;28;20038;-76
2022/02/19 10:08:04;;;;;;;5.73;1.07;;;7.40;91.40;;;;;;4978630;28;20026;-75
2022/02/19 10:10:31;;;;;;;5.17;1.53;;;7.40;91.40;;;;;;4977889;28;20487;-75
2022/02/19 10:12:57;;;;;;;5.77;2.17;;;7.40;91.20;;;;;;4978246;28;20034;-76
2022/02/19 10:15:38;;;;;;;7.97;0.90;;;7.40;91.30;;;;;;4978470;28;20113;-77
2022/02/19 10:18:24;;;;;;;7.13;1.17;;;7.40;88.00;;;;;;4979402;28;20058;-75
2022/02/19 10:21:09;;;;;;;11.27;1.20;;;7.50;85.30;;;;;;4996688;28;20566;-74
2022/02/19 10:23:40;;;;;;;8.00;1.30;;;7.40;86.20;;;;;;4978775;28;20046;-74
2022/02/19 10:26:06;;;;;;;8.27;1.13;;;7.40;85.80;;;;;;4996551;28;20472;-74
2022/02/19 10:28:32;;;;;;;6.70;0.90;;;7.30;86.50;;;;;;4978476;28;20419;-73
2022/02/19 10:31:10;;;;;;;5.87;0.77;;;7.30;86.60;;;;;;4996519;28;20029;-74
2022/02/19 10:33:37;;;;;;;5.20;0.83;;;7.30;84.30;;;;;;4978184;28;20085;-75
2022/02/19 10:36:04;;;;;;;5.57;0.93;;;7.20;83.00;;;;;;4978722;28;20037;-74
2022/02/19 10:38:50;;;;;;;9.33;1.40;;;7.20;84.60;;;;;;4978266;28;20395;-73
2022/02/19 10:41:15;;;;;;;8.47;1.17;;;7.20;86.70;;;;;;4995307;28;20037;-76
2022/02/19 10:43:41;;;;;;;7.73;0.93;;;7.20;88.00;;;;;;4995942;28;20109;-73
2022/02/19 10:46:06;;;;;;;6.77;0.80;;;7.10;86.70;;;;;;4978821;28;20038;-73
2022/02/19 10:48:34;;;;;;;6.27;1.00;;;7.20;87.90;;;;;;4995559;28;20026;-75
2022/02/19 10:51:11;;;;;;;5.03;0.90;;;7.20;88.40;;;;;;4996019;28;20396;-74
2022/02/19 10:53:38;;;;;;;7.07;1.00;;;7.20;87.00;;;;;;4978190;28;20092;-74
2022/02/19 10:56:13;;;;;;;5.67;1.10;;;7.30;88.30;;;;;;4978188;28;20022;-73
2022/02/19 10:58:58;;;;;;;5.97;1.27;;;7.40;86.90;;;;;;4995356;28;20052;-75
2022/02/19 11:01:23;;;;;;;6.37;0.97;;;7.50;82.60;;;;;;4978210;28;20026;-73
2022/02/19 11:03:49;;;;;;;5.43;1.07;;;7.60;84.50;;;;;;4978596;28;20542;-73
2022/02/19 11:06:15;;;;;;;5.00;1.38;;;7.60;81.10;;;;;;4978583;28;20034;-73
2022/02/19 11:08:45;;;;;;;4.10;1.00;;;7.70;81.50;;;;;;4977826;28;20027;-74
2022/02/19 11:11:11;;;;;;;11.65;1.15;;;7.70;80.70;;;;;;4977398;28;20106;-74
2022/02/19 11:13:38;;;;;;;7.25;1.17;;;7.80;80.90;;;;;;4977828;28;20554;-73
2022/02/19 11:16:05;;;;;;;6.97;0.85;;;7.80;82.10;;;;;;4978122;28;20033;-73
2022/02/19 11:18:35;;;;;;;7.25;0.80;;;7.90;83.90;;;;;;4995330;28;20030;-75
2022/02/19 11:21:05;;;;;;;2.15;0.70;;;7.90;83.90;;;;;;4978648;28;20488;-75
2022/02/19 11:23:32;;;;;;;6.25;1.00;;;8.00;79.40;;;;;;4977902;28;20038;-75
2022/02/19 11:25:59;;;;;;;4.80;0.82;;;8.20;81.00;;;;;;4995733;28;20054;-74
2022/02/19 11:28:30;;;;;;;5.63;0.73;;;8.30;79.60;;;;;;4994722;28;20030;-75
2022/02/19 11:30:56;;;;;;;4.43;0.95;;;8.40;79.60;;;;;;4976228;28;20060;-74
2022/02/19 11:33:25;;;;;;;5.68;0.95;;;8.40;76.30;;;;;;4976474;28;20033;-75
2022/02/19 11:35:51;;;;;;;3.40;0.88;;;8.50;75.60;;;;;;4977630;28;20738;-75
2022/02/19 11:38:25;;;;;;;6.15;0.90;;;8.50;72.80;;;;;;4973115;28;20030;-75
2022/02/19 11:40:53;;;;;;;6.28;1.10;;;8.60;72.10;;;;;;4978005;28;20030;-75
2022/02/19 11:43:30;;;;;;;5.97;0.82;;;8.70;71.10;;;;;;4976914;28;20030;-75
2022/02/19 11:45:56;;;;;;;8.38;0.98;;;8.70;71.00;;;;;;4976861;28;20065;-76
2022/02/19 11:48:25;;;;;;;5.15;0.80;;;8.70;72.50;;;;;;4976199;28;20062;-77
2022/02/19 11:51:14;;;;;;;7.05;0.90;;;8.70;72.40;;;;;;4976991;28;20026;-76
2022/02/19 11:53:40;;;;;;;6.88;1.00;;;8.70;74.80;;;;;;4976795;28;20527;-76
2022/02/19 11:56:14;;;;;;;9.13;1.00;;;8.80;74.90;;;;;;4977294;28;20026;-76
2022/02/19 11:58:54;;;;;;;4.85;0.80;;;8.90;74.20;;;;;;4994205;28;20111;-77
2022/02/19 12:01:20;;;;;;;7.15;0.85;;;8.80;72.50;;;;;;4976751;28;20041;-76
2022/02/19 12:03:46;;;;;;;7.80;1.13;;;8.70;69.80;;;;;;4976689;28;20030;-76
2022/02/19 12:06:25;;;;;;;7.97;0.82;;;8.60;67.40;;;;;;4977432;28;20077;-76
2022/02/19 12:08:53;;;;;;;7.68;1.08;;;8.60;67.70;;;;;;4976111;28;20033;-75
2022/02/19 12:11:24;;;;;;;2.30;0.60;;;8.70;68.50;;;;;;4976062;28;20024;-75
2022/02/19 12:13:54;;;;;;;5.28;0.77;;;8.70;68.40;;;;;;4976063;28;20038;-75
2022/02/19 12:16:34;;;;;;;4.63;1.08;;;8.90;69.30;;;;;;4974859;28;20030;-76
2022/02/19 12:19:05;;;;;;;5.70;1.00;;;8.90;68.20;;;;;;4975556;28;20538;-76
2022/02/19 12:21:42;;;;;;;8.05;0.98;;;9.00;68.60;;;;;;4991487;28;20042;-75
2022/02/19 12:24:18;;;;;;;3.80;0.70;;;9.10;67.20;;;;;;4980181;28;20038;-75
2022/02/19 12:27:15;;;;;;;4.78;0.85;;;9.20;61.80;;;;;;4975856;28;20038;-74
2022/02/19 12:29:40;;;;;;;3.15;0.88;;;9.30;58.80;;;;;;4975744;28;20554;-75
2022/02/19 12:32:14;;;;;;;4.57;0.93;;;9.50;59.80;;;;;;4975786;28;20256;-74
2022/02/19 12:34:48;;;;;;;4.47;0.70;;;9.60;57.10;;;;;;4974702;28;20041;-74
2022/02/19 12:37:14;;;;;;;2.00;0.52;;;9.80;58.50;;;;;;4969498;28;20109;-76
2022/02/19 12:39:54;;;;;;;3.72;0.63;;;10.00;57.30;;;;;;4974852;28;20475;-75
2022/02/19 12:42:22;;;;;;;4.90;0.82;;;10.00;54.00;;;;;;4988784;28;20026;-78
2022/02/19 12:44:59;;;;;;;5.38;0.93;;;10.10;55.50;;;;;;4976147;28;20117;-75
2022/02/19 12:47:24;;;;;;;4.07;0.95;;;10.30;57.30;;;;;;4975701;28;20026;-78
2022/02/19 12:49:50;;;;;;;2.55;0.70;;;10.40;58.00;;;;;;4976322;28;20169;-76
2022/02/19 12:52:16;;;;;;;4.10;0.80;;;10.60;57.40;;;;;;4976228;28;20506;-76
2022/02/19 12:54:44;;;;;;;2.25;0.57;;;10.60;54.50;;;;;;4974891;28;20019;-76
2022/02/19 12:57:13;;;;;;;5.80;0.90;;;10.60;54.50;;;;;;4975935;28;20109;-77
2022/02/19 12:59:41;;;;;;;8.07;0.90;;;10.70;54.40;;;;;;4975303;28;20026;-76
2022/02/19 13:02:09;;;;;;;4.32;0.98;;;11.00;54.20;;;;;;4976440;28;20030;-77
2022/02/19 13:04:43;;;;;;;4.25;0.80;;;11.30;52.00;;;;;;4975969;28;20042;-76